Time;durP1;ratioP1;P1;durP2;ratioP2;P2;SDS_P1;SDS_P2;PMS_P1;PMS_P2;Temp;Humidity;BMP_temperature;BMP_pressure;BME280_temperature;BME280_humidity;BME280_pressure;Samples;Min_cycle;Max_cycle;Signal;HPM_P1;HPM_P2
2022/04/14 00:01:29;;;;;;;6.83;4.20;;;14.00;55.90;;;;;;5064390;28;20426;-72
2022/04/14 00:03:56;;;;;;;7.70;4.80;;;13.90;56.50;;;;;;5072489;28;20474;-78
2022/04/14 00:06:23;;;;;;;6.50;4.30;;;13.90;57.00;;;;;;5069831;28;20428;-72
2022/04/14 00:08:52;;;;;;;9.03;4.67;;;13.80;57.50;;;;;;5072234;28;20436;-73
2022/04/14 00:11:19;;;;;;;6.70;4.67;;;13.70;57.80;;;;;;5072189;28;20510;-74
2022/04/14 00:13:47;;;;;;;9.53;4.70;;;13.70;58.60;;;;;;5058311;28;20456;-73
2022/04/14 00:16:14;;;;;;;6.17;4.20;;;13.70;58.70;;;;;;5061514;28;20464;-72
2022/04/14 00:18:42;;;;;;;7.13;4.60;;;13.70;58.50;;;;;;5063821;28;20822;-74
2022/04/14 00:21:09;;;;;;;6.87;4.47;;;13.70;58.80;;;;;;5064494;28;20457;-73
2022/04/14 00:23:36;;;;;;;8.37;4.83;;;13.70;59.10;;;;;;5059818;28;20459;-72
2022/04/14 00:26:03;;;;;;;5.70;4.60;;;13.60;59.40;;;;;;5056530;28;20874;-71
2022/04/14 00:28:30;;;;;;;8.32;4.78;;;13.60;59.70;;;;;;5056349;28;20539;-72
2022/04/14 00:30:59;;;;;;;10.90;4.87;;;13.60;60.00;;;;;;5055631;28;20207;-71
2022/04/14 00:33:26;;;;;;;5.20;4.40;;;13.60;60.00;;;;;;5055809;28;20424;-72
2022/04/14 00:35:53;;;;;;;8.27;5.37;;;13.50;60.10;;;;;;5055617;28;20460;-72
2022/04/14 00:38:20;;;;;;;10.37;4.40;;;13.40;60.40;;;;;;5055150;28;20804;-71
2022/04/14 00:40:49;;;;;;;7.00;5.40;;;13.40;60.60;;;;;;5054173;28;20941;-73
2022/04/14 00:43:16;;;;;;;5.97;4.03;;;13.40;60.50;;;;;;5054295;28;20485;-73
2022/04/14 00:45:44;;;;;;;8.00;4.67;;;13.30;60.70;;;;;;5053133;28;20476;-73
2022/04/14 00:48:13;;;;;;;6.97;5.53;;;13.30;61.70;;;;;;5054237;28;20522;-71
2022/04/14 00:50:40;;;;;;;11.23;4.78;;;13.30;61.70;;;;;;5054388;28;20249;-73
2022/04/14 00:53:07;;;;;;;6.90;4.73;;;13.30;61.70;;;;;;5054452;28;20257;-73
2022/04/14 00:55:34;;;;;;;6.53;4.33;;;13.30;61.70;;;;;;5054078;28;20455;-72
2022/04/14 00:58:01;;;;;;;6.23;4.37;;;13.30;61.70;;;;;;5054580;28;20514;-71
2022/04/14 01:00:28;;;;;;;8.60;4.47;;;13.30;61.70;;;;;;5057250;28;20449;-72
2022/04/14 01:02:55;;;;;;;9.20;4.93;;;13.30;61.70;;;;;;5056228;28;20452;-72
2022/04/14 01:05:26;;;;;;;9.17;5.13;;;13.20;61.60;;;;;;5054039;28;20972;-75
2022/04/14 01:07:55;;;;;;;6.07;4.30;;;13.20;62.10;;;;;;5054427;28;20457;-75
2022/04/14 01:10:22;;;;;;;9.15;4.80;;;13.20;62.10;;;;;;5053948;28;20494;-73
2022/04/14 01:12:50;;;;;;;5.85;4.20;;;13.10;62.90;;;;;;5055496;28;20233;-72
2022/04/14 01:15:17;;;;;;;9.13;4.47;;;13.10;63.40;;;;;;5061599;28;20289;-73
2022/04/14 01:17:44;;;;;;;6.90;4.80;;;13.10;63.40;;;;;;5068399;28;20203;-73
2022/04/14 01:20:13;;;;;;;10.97;5.27;;;13.10;63.50;;;;;;5063695;28;20226;-72
2022/04/14 01:22:46;;;;;;;9.15;4.65;;;13.10;63.60;;;;;;5055512;28;20424;-71
2022/04/14 01:25:15;;;;;;;6.97;4.70;;;13.10;64.40;;;;;;5055160;28;20226;-72
2022/04/14 01:27:41;;;;;;;8.40;4.50;;;13.10;64.30;;;;;;5054983;28;20488;-72
2022/04/14 01:30:09;;;;;;;6.68;4.65;;;13.00;64.50;;;;;;5056209;28;20568;-72
2022/04/14 01:32:36;;;;;;;9.63;5.33;;;13.10;64.70;;;;;;5061911;28;20238;-74
2022/04/14 01:35:05;;;;;;;7.00;4.70;;;13.00;65.10;;;;;;5067216;28;20456;-74
2022/04/14 01:37:31;;;;;;;9.77;5.37;;;13.00;65.20;;;;;;5067778;28;20577;-72
2022/04/14 01:39:58;;;;;;;5.13;4.43;;;13.00;65.00;;;;;;5065526;28;20481;-72
2022/04/14 01:42:27;;;;;;;14.55;5.60;;;12.90;65.10;;;;;;5064677;28;20453;-74
2022/04/14 01:44:54;;;;;;;6.03;5.10;;;12.90;65.80;;;;;;5064151;28;20262;-74
2022/04/14 01:47:21;;;;;;;10.47;4.97;;;12.80;66.20;;;;;;5064476;28;20217;-72
2022/04/14 01:49:48;;;;;;;7.43;5.00;;;12.80;67.60;;;;;;5060958;28;20575;-73
2022/04/14 01:52:15;;;;;;;8.00;4.50;;;12.80;67.80;;;;;;5057428;28;20484;-71
2022/04/14 01:54:42;;;;;;;5.10;4.30;;;12.90;67.90;;;;;;5054622;28;20805;-72
2022/04/14 01:57:09;;;;;;;6.00;4.28;;;12.90;68.00;;;;;;5055899;28;20452;-72
2022/04/14 01:59:38;;;;;;;6.20;4.83;;;12.80;68.20;;;;;;5060923;28;20249;-75
2022/04/14 02:02:05;;;;;;;7.25;4.95;;;12.90;68.50;;;;;;5063984;28;20488;-72
2022/04/14 02:04:32;;;;;;;8.63;4.77;;;12.90;68.50;;;;;;5065162;28;20241;-72
2022/04/14 02:06:59;;;;;;;6.57;5.30;;;12.80;68.30;;;;;;5068643;28;20457;-73
2022/04/14 02:09:26;;;;;;;5.83;4.50;;;12.80;69.30;;;;;;5068961;28;20849;-75
2022/04/14 02:11:53;;;;;;;6.80;4.75;;;12.80;68.60;;;;;;5071112;28;20449;-76
2022/04/14 02:14:20;;;;;;;12.53;5.50;;;12.80;68.80;;;;;;5070983;28;20190;-75
2022/04/14 02:16:48;;;;;;;8.00;4.80;;;12.70;69.50;;;;;;5065367;28;20463;-72
2022/04/14 02:19:15;;;;;;;7.88;4.60;;;12.70;69.60;;;;;;5058269;28;20226;-71
2022/04/14 02:21:42;;;;;;;7.38;4.85;;;12.70;70.00;;;;;;5062671;28;20237;-72
2022/04/14 02:24:09;;;;;;;6.85;4.85;;;12.80;70.10;;;;;;5057778;28;20302;-71
2022/04/14 02:26:36;;;;;;;7.30;5.10;;;12.80;70.10;;;;;;5057832;28;20210;-72
2022/04/14 02:29:03;;;;;;;8.40;5.00;;;12.70;70.00;;;;;;5058856;28;20257;-73
2022/04/14 02:31:30;;;;;;;8.60;4.85;;;12.70;70.00;;;;;;5054649;28;20240;-72
2022/04/14 02:33:58;;;;;;;13.45;5.72;;;12.70;71.30;;;;;;5053490;28;20638;-74
2022/04/14 02:36:25;;;;;;;7.90;5.68;;;12.70;71.70;;;;;;5054589;28;20213;-73
2022/04/14 02:38:51;;;;;;;5.75;5.00;;;12.80;70.90;;;;;;5054269;28;20591;-72
2022/04/14 02:41:18;;;;;;;6.68;4.53;;;12.80;71.20;;;;;;5056959;28;20211;-72
2022/04/14 02:43:45;;;;;;;9.95;5.40;;;12.80;71.30;;;;;;5055069;28;20258;-72
2022/04/14 02:46:12;;;;;;;8.30;4.80;;;12.80;72.20;;;;;;5054820;28;20222;-70
2022/04/14 02:48:39;;;;;;;9.32;5.07;;;12.70;71.50;;;;;;5053921;28;20989;-73
2022/04/14 02:51:07;;;;;;;8.25;5.65;;;12.80;71.90;;;;;;5054530;28;20202;-72
2022/04/14 02:53:34;;;;;;;5.43;4.83;;;12.80;71.90;;;;;;5064840;28;20218;-73
2022/04/14 02:56:02;;;;;;;7.75;5.10;;;12.90;72.30;;;;;;5057573;28;20868;-72
2022/04/14 02:58:29;;;;;;;8.50;4.90;;;12.90;71.40;;;;;;5068768;28;20252;-74
2022/04/14 03:00:56;;;;;;;7.03;5.00;;;12.90;71.10;;;;;;5073097;28;20444;-76
2022/04/14 03:03:25;;;;;;;8.00;4.97;;;12.90;70.20;;;;;;5067974;28;20492;-73
2022/04/14 03:05:52;;;;;;;9.53;5.00;;;12.80;70.10;;;;;;5060925;28;20449;-73
2022/04/14 03:08:20;;;;;;;12.83;4.70;;;12.80;70.20;;;;;;5056962;28;20551;-75
2022/04/14 03:10:47;;;;;;;10.20;5.80;;;12.70;71.30;;;;;;5057381;28;20527;-73
2022/04/14 03:13:14;;;;;;;8.60;5.57;;;12.70;71.60;;;;;;5057098;28;20448;-72
2022/04/14 03:15:42;;;;;;;8.10;5.70;;;12.70;71.60;;;;;;5057580;28;20501;-72
2022/04/14 03:18:08;;;;;;;8.77;4.57;;;12.70;71.90;;;;;;5059757;28;20213;-73
2022/04/14 03:20:35;;;;;;;6.80;6.03;;;12.60;72.10;;;;;;5058131;28;20449;-72
2022/04/14 03:23:02;;;;;;;6.65;5.00;;;12.50;72.50;;;;;;5061180;28;20820;-72
2022/04/14 03:25:30;;;;;;;7.53;5.80;;;12.40;73.30;;;;;;5059854;28;20230;-72
2022/04/14 03:27:57;;;;;;;6.40;5.47;;;12.40;73.90;;;;;;5056465;28;20521;-73
2022/04/14 03:30:24;;;;;;;6.72;5.00;;;12.40;74.10;;;;;;5056121;28;20292;-73
2022/04/14 03:32:51;;;;;;;10.25;5.25;;;12.40;74.40;;;;;;5056776;28;20217;-72
2022/04/14 03:35:18;;;;;;;8.45;5.80;;;12.40;74.80;;;;;;5056809;28;20298;-71
2022/04/14 03:37:45;;;;;;;10.50;5.85;;;12.40;75.30;;;;;;5056871;28;20206;-74
2022/04/14 03:40:13;;;;;;;6.40;5.45;;;12.30;74.50;;;;;;5056131;28;20234;-72
2022/04/14 03:42:42;;;;;;;9.98;5.55;;;12.30;74.10;;;;;;5056727;28;20683;-73
2022/04/14 03:45:09;;;;;;;13.00;5.85;;;12.20;75.60;;;;;;5056282;28;20724;-72
2022/04/14 03:47:36;;;;;;;12.27;5.93;;;12.20;76.10;;;;;;5056916;28;20256;-73
2022/04/14 03:50:04;;;;;;;6.43;5.37;;;12.20;76.50;;;;;;5056736;28;20246;-72
2022/04/14 03:52:31;;;;;;;8.05;6.20;;;12.20;76.70;;;;;;5057217;28;20478;-72
2022/04/14 03:54:58;;;;;;;7.50;5.60;;;12.20;77.40;;;;;;5057327;28;20214;-74
2022/04/14 03:57:25;;;;;;;10.32;5.95;;;12.20;77.20;;;;;;5056917;28;20448;-72
2022/04/14 03:59:54;;;;;;;11.32;6.15;;;12.20;76.80;;;;;;5056862;28;20257;-76
2022/04/14 04:02:21;;;;;;;14.73;6.75;;;12.20;77.20;;;;;;5056580;28;20213;-74
2022/04/14 04:04:47;;;;;;;8.00;6.18;;;12.20;77.70;;;;;;5057130;28;20226;-72
2022/04/14 04:07:14;;;;;;;8.63;6.65;;;12.10;78.20;;;;;;5074161;28;20193;-74
2022/04/14 04:09:41;;;;;;;10.23;6.88;;;12.10;78.10;;;;;;5072266;28;20226;-72
2022/04/14 04:12:09;;;;;;;9.68;6.30;;;12.10;78.00;;;;;;5055381;28;20213;-72
2022/04/14 04:14:36;;;;;;;8.20;6.97;;;12.10;78.20;;;;;;5055083;28;20692;-72
2022/04/14 04:17:05;;;;;;;10.05;6.75;;;12.10;78.60;;;;;;5055529;28;20465;-72
2022/04/14 04:19:32;;;;;;;12.20;6.17;;;12.10;78.20;;;;;;5054657;28;20631;-72
2022/04/14 04:21:59;;;;;;;11.57;7.10;;;12.10;78.20;;;;;;5055104;28;20449;-72
2022/04/14 04:24:26;;;;;;;7.82;6.10;;;12.10;78.10;;;;;;5058033;28;20288;-74
2022/04/14 04:26:53;;;;;;;10.75;6.18;;;12.10;78.20;;;;;;5062783;28;20277;-72
2022/04/14 04:29:20;;;;;;;8.82;6.20;;;12.00;79.40;;;;;;5056451;28;20702;-73
2022/04/14 04:31:47;;;;;;;15.52;6.47;;;12.00;79.10;;;;;;5054692;28;20242;-73
2022/04/14 04:34:17;;;;;;;13.60;6.03;;;12.00;79.00;;;;;;5055383;28;20246;-72
2022/04/14 04:36:44;;;;;;;11.57;6.30;;;12.10;78.80;;;;;;5056630;28;20206;-72
2022/04/14 04:39:10;;;;;;;8.57;7.32;;;12.00;78.50;;;;;;5072098;28;20290;-71
2022/04/14 04:41:38;;;;;;;12.48;6.53;;;12.00;79.50;;;;;;5071935;28;20206;-75
2022/04/14 04:44:05;;;;;;;12.43;7.33;;;12.00;79.40;;;;;;5072242;28;20241;-72
2022/04/14 04:46:32;;;;;;;12.23;5.80;;;11.90;78.90;;;;;;5069115;28;20604;-76
2022/04/14 04:48:59;;;;;;;10.88;6.43;;;11.80;79.50;;;;;;5070426;28;20257;-75
2022/04/14 04:51:28;;;;;;;10.20;6.60;;;11.80;80.70;;;;;;5061857;28;20242;-73
2022/04/14 04:53:55;;;;;;;12.80;6.53;;;11.80;80.70;;;;;;5061713;28;20207;-73
2022/04/14 04:56:22;;;;;;;13.60;6.75;;;11.90;81.40;;;;;;5065239;28;20212;-73
2022/04/14 04:58:49;;;;;;;9.60;6.55;;;12.00;80.60;;;;;;5062115;28;20227;-73
2022/04/14 05:01:16;;;;;;;10.63;6.70;;;12.00;79.00;;;;;;5054909;28;20734;-73
2022/04/14 05:03:43;;;;;;;8.18;6.40;;;12.10;78.20;;;;;;5054356;28;20210;-72
2022/04/14 05:06:09;;;;;;;7.80;5.88;;;12.20;77.90;;;;;;5054053;28;20226;-74
2022/04/14 05:08:37;;;;;;;9.23;6.38;;;12.20;77.30;;;;;;5056836;28;20291;-73
2022/04/14 05:11:04;;;;;;;10.13;6.95;;;12.20;77.20;;;;;;5057485;28;20210;-72
2022/04/14 05:13:31;;;;;;;14.48;8.57;;;12.30;76.90;;;;;;5061052;28;20210;-74
2022/04/14 05:15:58;;;;;;;8.52;6.65;;;12.40;76.00;;;;;;5054759;28;20289;-73
2022/04/14 05:18:25;;;;;;;7.57;6.55;;;12.50;75.40;;;;;;5054757;28;20230;-73
2022/04/14 05:20:52;;;;;;;8.25;6.90;;;12.60;74.40;;;;;;5053937;28;20206;-73
2022/04/14 05:23:18;;;;;;;8.87;6.70;;;12.70;73.50;;;;;;5054162;28;20260;-73
2022/04/14 05:25:47;;;;;;;9.63;6.70;;;12.80;72.90;;;;;;5053594;28;20496;-73
2022/04/14 05:28:13;;;;;;;7.23;6.53;;;13.00;71.90;;;;;;5053472;28;20493;-73
2022/04/14 05:30:40;;;;;;;9.93;6.70;;;13.20;70.50;;;;;;5053109;28;20489;-75
2022/04/14 05:33:10;;;;;;;11.37;6.83;;;13.30;68.90;;;;;;5053688;28;20507;-73
2022/04/14 05:35:37;;;;;;;10.27;7.13;;;13.50;67.30;;;;;;5053561;28;20437;-74
2022/04/14 05:38:05;;;;;;;12.77;7.00;;;13.70;66.40;;;;;;5053817;28;20491;-72
2022/04/14 05:40:32;;;;;;;8.43;7.00;;;13.90;64.10;;;;;;5053646;28;20494;-73
2022/04/14 05:43:00;;;;;;;7.67;6.43;;;14.10;62.40;;;;;;5054594;28;20503;-73
2022/04/14 05:45:27;;;;;;;10.73;7.47;;;14.40;62.70;;;;;;5054795;28;20468;-73
2022/04/14 05:47:53;;;;;;;9.20;6.67;;;14.70;60.50;;;;;;5054966;28;20453;-74
2022/04/14 05:50:20;;;;;;;11.37;6.90;;;14.90;59.10;;;;;;5054377;28;20480;-73
2022/04/14 05:52:47;;;;;;;9.37;7.00;;;15.10;57.60;;;;;;5057154;28;20456;-73
2022/04/14 05:55:14;;;;;;;14.17;6.70;;;15.30;56.80;;;;;;5060968;28;20485;-73
2022/04/14 05:57:41;;;;;;;11.73;8.30;;;15.60;55.90;;;;;;5069437;28;20481;-74
2022/04/14 06:00:11;;;;;;;25.13;13.20;;;15.90;54.70;;;;;;5069830;28;20504;-72
2022/04/14 06:02:38;;;;;;;12.97;7.83;;;16.00;54.80;;;;;;5070604;28;20524;-72
2022/04/14 06:05:06;;;;;;;13.80;7.63;;;16.10;53.20;;;;;;5069301;28;20455;-73
2022/04/14 06:07:33;;;;;;;11.37;7.40;;;16.30;52.30;;;;;;5070293;28;20418;-75
2022/04/14 06:10:00;;;;;;;14.70;7.70;;;16.20;51.90;;;;;;5072555;28;20469;-74
2022/04/14 06:12:27;;;;;;;13.67;7.77;;;16.20;52.20;;;;;;5072967;28;20479;-73
2022/04/14 06:14:54;;;;;;;9.00;6.77;;;16.30;51.80;;;;;;5068810;28;20473;-74
2022/04/14 06:17:22;;;;;;;10.47;7.60;;;16.30;51.80;;;;;;5066025;28;20436;-72
2022/04/14 06:19:49;;;;;;;10.20;6.87;;;16.30;51.50;;;;;;5063541;28;20515;-73
2022/04/14 06:22:16;;;;;;;13.10;7.40;;;16.30;51.90;;;;;;5062438;28;20430;-73
2022/04/14 06:24:43;;;;;;;9.43;7.47;;;16.30;51.70;;;;;;5059631;28;20468;-73
2022/04/14 06:27:10;;;;;;;13.23;7.30;;;16.40;51.70;;;;;;5055191;28;20461;-73
2022/04/14 06:29:36;;;;;;;15.40;8.13;;;16.40;51.90;;;;;;5053914;28;20527;-74
2022/04/14 06:32:04;;;;;;;8.90;8.00;;;16.40;51.60;;;;;;5052996;28;20457;-73
2022/04/14 06:34:32;;;;;;;15.23;9.00;;;16.40;51.70;;;;;;5048553;28;20466;-72
2022/04/14 06:36:59;;;;;;;12.80;8.27;;;16.50;51.60;;;;;;5033327;28;20954;-73
2022/04/14 06:39:26;;;;;;;10.07;8.53;;;16.50;51.50;;;;;;5032587;28;20494;-74
2022/04/14 06:41:52;;;;;;;16.13;9.17;;;16.60;51.70;;;;;;5047577;28;20433;-73
2022/04/14 06:44:19;;;;;;;20.90;12.27;;;16.70;51.40;;;;;;5056056;28;20555;-72
2022/04/14 06:46:46;;;;;;;15.33;11.70;;;16.70;51.70;;;;;;5058934;28;20489;-74
2022/04/14 06:49:13;;;;;;;17.13;14.70;;;16.70;52.20;;;;;;5061003;28;20574;-73
2022/04/14 06:51:41;;;;;;;16.87;14.50;;;16.70;52.20;;;;;;5061373;28;20460;-74
2022/04/14 06:54:09;;;;;;;18.07;16.17;;;16.50;53.40;;;;;;5060391;28;20520;-73
2022/04/14 06:56:36;;;;;;;22.17;14.80;;;16.50;53.70;;;;;;5056732;28;20449;-72
2022/04/14 06:59:03;;;;;;;21.30;14.83;;;16.50;53.90;;;;;;5056799;28;20487;-72
2022/04/14 07:01:30;;;;;;;17.03;15.20;;;16.60;54.00;;;;;;5057880;28;20941;-72
2022/04/14 07:03:57;;;;;;;19.33;15.40;;;16.70;53.90;;;;;;5062607;28;20488;-72
2022/04/14 07:06:23;;;;;;;23.00;15.20;;;16.80;53.60;;;;;;5063143;28;20466;-73
2022/04/14 07:08:52;;;;;;;22.30;16.10;;;16.80;53.20;;;;;;5062597;28;20530;-73
2022/04/14 07:11:18;;;;;;;19.07;15.87;;;16.80;54.10;;;;;;5060452;28;20455;-73
2022/04/14 07:13:46;;;;;;;21.57;16.17;;;16.80;53.50;;;;;;5056857;28;21002;-72
2022/04/14 07:16:13;;;;;;;17.43;15.70;;;16.70;54.00;;;;;;5055901;28;21066;-73
2022/04/14 07:18:40;;;;;;;23.23;15.80;;;16.80;54.30;;;;;;5051138;28;20484;-74
2022/04/14 07:21:07;;;;;;;20.40;16.70;;;16.80;54.50;;;;;;5035926;28;20458;-72
2022/04/14 07:23:34;;;;;;;27.17;18.00;;;16.90;53.70;;;;;;5036888;28;20454;-73
2022/04/14 07:26:02;;;;;;;19.10;16.03;;;17.00;53.50;;;;;;5037727;28;20831;-73
2022/04/14 07:28:29;;;;;;;20.40;15.30;;;17.10;53.10;;;;;;5056432;28;20485;-74
2022/04/14 07:30:56;;;;;;;26.80;17.40;;;17.20;52.90;;;;;;5044584;28;20445;-73
2022/04/14 07:33:23;;;;;;;21.33;17.57;;;17.10;52.60;;;;;;5045261;28;20448;-72
2022/04/14 07:35:52;;;;;;;21.57;17.00;;;16.90;53.50;;;;;;5055651;28;20475;-72
2022/04/14 07:38:19;;;;;;;20.53;17.03;;;16.90;53.80;;;;;;5053196;28;20472;-72
2022/04/14 07:40:46;;;;;;;22.27;16.90;;;17.00;53.50;;;;;;5057140;28;20428;-74
2022/04/14 07:43:15;;;;;;;22.43;16.63;;;17.30;53.10;;;;;;5055974;28;20461;-73
2022/04/14 07:45:43;;;;;;;19.87;16.67;;;17.30;52.30;;;;;;5068431;28;20563;-74
2022/04/14 07:48:10;;;;;;;19.00;16.87;;;17.30;53.00;;;;;;5060743;28;20453;-73
2022/04/14 07:50:37;;;;;;;22.17;15.40;;;17.50;52.70;;;;;;5055887;28;20461;-73
2022/04/14 07:53:04;;;;;;;21.73;16.47;;;17.80;51.70;;;;;;5065353;28;20460;-75
2022/04/14 07:55:33;;;;;;;20.77;16.03;;;18.00;51.30;;;;;;5054557;28;20458;-73
2022/04/14 07:58:04;;;;;;;19.70;16.73;;;17.90;51.00;;;;;;5049428;28;20464;-75
2022/04/14 08:00:33;;;;;;;18.30;16.07;;;18.00;50.40;;;;;;5051013;28;20450;-75
2022/04/14 08:03:02;;;;;;;23.43;16.40;;;18.10;50.30;;;;;;5066925;28;20481;-75
2022/04/14 08:05:29;;;;;;;21.00;16.23;;;18.10;49.90;;;;;;5055365;28;20496;-74
2022/04/14 08:07:56;;;;;;;21.97;16.77;;;18.00;50.40;;;;;;5066489;28;20453;-74
2022/04/14 08:10:23;;;;;;;19.47;16.67;;;17.90;50.70;;;;;;5051170;28;20488;-74
2022/04/14 08:12:50;;;;;;;19.50;16.60;;;18.00;50.40;;;;;;5045544;28;20564;-74
2022/04/14 08:15:17;;;;;;;29.33;18.03;;;18.20;50.00;;;;;;5041617;28;20849;-74
2022/04/14 08:17:46;;;;;;;23.40;16.70;;;18.40;49.20;;;;;;5055768;28;20549;-75
2022/04/14 08:20:15;;;;;;;20.90;16.60;;;18.70;48.60;;;;;;5055802;28;20909;-73
2022/04/14 08:22:47;;;;;;;19.90;15.80;;;19.10;48.00;;;;;;5056181;28;20587;-75
2022/04/14 08:25:15;;;;;;;17.27;15.47;;;19.50;47.10;;;;;;5049992;28;20869;-74
2022/04/14 08:27:42;;;;;;;20.57;15.80;;;19.20;48.10;;;;;;5056118;28;20432;-75
2022/04/14 08:30:10;;;;;;;21.93;16.23;;;19.40;47.40;;;;;;5051177;28;20448;-74
2022/04/14 08:32:38;;;;;;;18.37;16.03;;;19.60;46.20;;;;;;5055063;28;20528;-75
2022/04/14 08:35:08;;;;;;;19.67;16.40;;;19.60;45.90;;;;;;5049968;28;20537;-75
2022/04/14 08:37:35;;;;;;;23.20;17.33;;;19.10;48.00;;;;;;5043210;28;20515;-75
2022/04/14 08:40:03;;;;;;;20.77;16.30;;;19.20;47.40;;;;;;5051479;28;20838;-75
2022/04/14 08:42:41;;;;;;;21.67;18.07;;;19.40;46.40;;;;;;5041647;28;20458;-74
2022/04/14 08:45:10;;;;;;;18.90;17.00;;;19.30;46.10;;;;;;5039947;28;20489;-74
2022/04/14 08:47:39;;;;;;;21.00;17.97;;;19.40;46.30;;;;;;5070423;28;20449;-78
2022/04/14 08:50:10;;;;;;;18.00;15.80;;;19.70;45.80;;;;;;5056069;28;20484;-79
2022/04/14 08:52:39;;;;;;;20.87;16.80;;;19.70;45.60;;;;;;5066929;28;20442;-75
2022/04/14 08:55:08;;;;;;;19.70;17.00;;;19.60;45.80;;;;;;5056216;28;20440;-73
2022/04/14 08:57:36;;;;;;;19.63;17.50;;;19.50;45.70;;;;;;5046377;28;20446;-73
2022/04/14 09:00:06;;;;;;;19.47;17.47;;;19.50;45.70;;;;;;5052630;28;20478;-73
2022/04/14 09:02:34;;;;;;;20.40;16.73;;;19.20;46.90;;;;;;5047809;28;20465;-75
2022/04/14 09:05:02;;;;;;;19.97;17.83;;;19.30;46.20;;;;;;5051264;28;20467;-75
2022/04/14 09:07:30;;;;;;;20.63;16.70;;;19.50;45.60;;;;;;5035611;28;20488;-73
2022/04/14 09:09:57;;;;;;;17.77;15.87;;;19.70;45.40;;;;;;5035040;28;20565;-74
2022/04/14 09:12:24;;;;;;;19.73;15.70;;;19.70;45.40;;;;;;5034769;28;20462;-74
2022/04/14 09:14:51;;;;;;;21.73;18.23;;;19.60;45.60;;;;;;5040443;28;20539;-74
2022/04/14 09:17:17;;;;;;;20.27;16.77;;;19.60;45.80;;;;;;5050871;28;20463;-74
2022/04/14 09:19:44;;;;;;;24.47;17.40;;;19.60;45.20;;;;;;5049667;28;20887;-75
2022/04/14 09:22:13;;;;;;;24.67;18.90;;;19.50;46.00;;;;;;5041583;28;20910;-74
2022/04/14 09:24:43;;;;;;;20.23;17.43;;;19.40;45.80;;;;;;5055240;28;20468;-73
2022/04/14 09:27:23;;;;;;;21.27;18.30;;;19.30;46.10;;;;;;5061063;28;21057;-73
2022/04/14 09:29:51;;;;;;;23.27;17.60;;;19.60;45.60;;;;;;5049650;28;20456;-73
2022/04/14 09:32:30;;;;;;;24.10;18.73;;;19.50;45.80;;;;;;5055862;28;20497;-73
2022/04/14 09:34:57;;;;;;;21.63;18.63;;;19.50;46.20;;;;;;5039346;28;20463;-78
2022/04/14 09:37:26;;;;;;;23.67;18.93;;;19.70;45.10;;;;;;5064462;28;20462;-74
2022/04/14 09:40:00;;;;;;;20.37;18.00;;;19.90;44.80;;;;;;5064561;28;20551;-76
2022/04/14 09:42:29;;;;;;;24.13;17.70;;;20.40;44.10;;;;;;5055595;28;20455;-74
2022/04/14 09:44:56;;;;;;;22.43;18.50;;;20.90;42.40;;;;;;5033168;28;20970;-76
2022/04/14 09:47:38;;;;;;;20.13;16.93;;;20.80;42.00;;;;;;5034463;28;20919;-73
2022/04/14 09:50:07;;;;;;;20.80;17.47;;;20.70;42.10;;;;;;5042023;28;20570;-76
2022/04/14 09:52:34;;;;;;;19.13;17.00;;;21.00;41.70;;;;;;5050176;28;20459;-75
2022/04/14 09:55:10;;;;;;;21.00;17.70;;;20.40;43.50;;;;;;5053009;28;20566;-75
2022/04/14 09:57:36;;;;;;;22.93;19.00;;;20.70;43.00;;;;;;5053384;28;20506;-75
2022/04/14 10:00:05;;;;;;;22.33;17.53;;;20.10;44.80;;;;;;5053575;28;20470;-75
2022/04/14 10:02:35;;;;;;;21.20;19.07;;;20.30;44.50;;;;;;5054976;28;20457;-75
2022/04/14 10:05:04;;;;;;;21.17;18.87;;;19.70;45.30;;;;;;5054284;28;20537;-75
2022/04/14 10:07:31;;;;;;;21.70;19.30;;;19.70;45.60;;;;;;5053361;28;20462;-75
2022/04/14 10:09:58;;;;;;;24.37;21.00;;;19.80;45.60;;;;;;5051551;28;20544;-76
2022/04/14 10:12:30;;;;;;;23.50;19.50;;;19.60;45.50;;;;;;5046871;28;20511;-75
2022/04/14 10:15:07;;;;;;;23.50;19.83;;;19.50;46.00;;;;;;5033440;28;20462;-76
2022/04/14 10:17:37;;;;;;;23.20;19.67;;;19.60;45.90;;;;;;5042550;28;20431;-76
2022/04/14 10:20:05;;;;;;;23.50;20.37;;;19.60;45.80;;;;;;5036903;28;20478;-74
2022/04/14 10:22:34;;;;;;;22.33;19.67;;;19.40;46.80;;;;;;5037457;28;20431;-77
2022/04/14 10:25:02;;;;;;;25.90;19.57;;;19.50;46.00;;;;;;5037658;28;20432;-75
2022/04/14 10:27:31;;;;;;;22.90;19.00;;;19.70;46.30;;;;;;5037253;28;20485;-76
2022/04/14 10:29:58;;;;;;;20.50;18.40;;;19.50;46.60;;;;;;5037152;28;20475;-76
2022/04/14 10:32:26;;;;;;;20.63;18.43;;;19.80;46.20;;;;;;5037550;28;20465;-76
2022/04/14 10:34:55;;;;;;;23.03;20.37;;;20.10;45.10;;;;;;5037508;28;20454;-75
2022/04/14 10:37:28;;;;;;;24.73;20.97;;;19.90;45.10;;;;;;5037688;28;20518;-75
2022/04/14 10:39:56;;;;;;;22.63;20.40;;;19.70;45.30;;;;;;5037554;28;20919;-74
2022/04/14 10:42:26;;;;;;;21.00;18.77;;;19.80;45.30;;;;;;5038316;28;20503;-75
2022/04/14 10:44:55;;;;;;;24.17;19.97;;;20.00;45.50;;;;;;5037600;28;20508;-76
2022/04/14 10:47:36;;;;;;;25.30;21.27;;;20.00;44.20;;;;;;5037514;28;20585;-75
2022/04/14 10:50:04;;;;;;;25.80;19.90;;;19.60;44.60;;;;;;5203004;22;20498;-80
2022/04/14 10:52:31;;;;;;;23.17;20.17;;;19.40;45.50;;;;;;5060026;28;20456;-77
2022/04/14 10:54:58;;;;;;;25.23;20.80;;;19.50;44.70;;;;;;5059646;28;20464;-79
2022/04/14 10:57:38;;;;;;;25.10;20.27;;;19.50;45.00;;;;;;5058761;28;20547;-78
2022/04/14 11:00:36;;;;;;;24.17;19.47;;;19.50;45.40;;;;;;5059218;28;20855;-78
2022/04/14 11:03:04;;;;;;;24.03;20.20;;;19.50;45.10;;;;;;5059071;28;20796;-77
2022/04/14 11:05:46;;;;;;;24.00;20.83;;;19.60;44.30;;;;;;5059206;28;20426;-79
2022/04/14 11:08:27;;;;;;;23.23;19.57;;;19.80;44.40;;;;;;5058925;28;20992;-78
2022/04/14 11:11:10;;;;;;;25.73;20.30;;;19.40;45.50;;;;;;5057875;28;20452;-79
2022/04/14 11:14:07;;;;;;;24.03;20.10;;;19.80;43.90;;;;;;5058651;28;20528;-78
2022/04/14 11:16:44;;;;;;;24.60;20.20;;;19.90;44.30;;;;;;5058252;28;20431;-77
2022/04/14 11:19:29;;;;;;;24.90;20.33;;;20.30;43.70;;;;;;5046311;28;20487;-78
2022/04/14 11:22:06;;;;;;;25.53;20.37;;;20.40;43.30;;;;;;5051244;28;20484;-78
2022/04/14 11:24:43;;;;;;;24.73;21.40;;;20.20;43.20;;;;;;5044498;28;20959;-78
2022/04/14 11:27:12;;;;;;;26.63;19.60;;;20.40;42.60;;;;;;5040194;28;20455;-77
2022/04/14 11:29:40;;;;;;;25.70;19.13;;;20.60;42.70;;;;;;5038024;28;20494;-78
2022/04/14 11:32:08;;;;;;;24.80;22.10;;;20.70;41.60;;;;;;5038019;28;20495;-77
2022/04/14 11:34:36;;;;;;;22.47;20.17;;;20.60;41.60;;;;;;5052744;28;20458;-82
2022/04/14 11:37:04;;;;;;;25.30;20.30;;;20.50;42.50;;;;;;5058363;28;20447;-80
2022/04/14 11:39:33;;;;;;;24.40;20.80;;;20.90;41.70;;;;;;5048455;28;20532;-78
2022/04/14 11:42:08;;;;;;;23.17;18.43;;;20.50;40.80;;;;;;5057661;28;20504;-80
2022/04/14 11:44:35;;;;;;;21.83;19.23;;;20.40;41.80;;;;;;5052623;28;20420;-79
2022/04/14 11:47:04;;;;;;;23.13;19.63;;;20.60;41.30;;;;;;5059423;28;20486;-77
2022/04/14 11:49:35;;;;;;;26.43;20.30;;;20.70;41.60;;;;;;5063226;28;20493;-76
2022/04/14 11:52:04;;;;;;;23.00;18.30;;;20.70;40.80;;;;;;5067612;28;20443;-79
2022/04/14 11:54:38;;;;;;;22.80;20.27;;;20.80;41.80;;;;;;5059715;28;20917;-76
2022/04/14 11:57:09;;;;;;;24.13;19.20;;;21.00;41.20;;;;;;5060989;28;20445;-78
2022/04/14 11:59:38;;;;;;;22.63;18.00;;;21.20;39.90;;;;;;5060266;28;20486;-78
2022/04/14 12:02:07;;;;;;;21.40;18.63;;;21.50;40.20;;;;;;5046931;28;20714;-75
2022/04/14 12:04:40;;;;;;;22.20;19.90;;;21.60;40.30;;;;;;5055059;28;20516;-78
2022/04/14 12:07:08;;;;;;;22.00;19.70;;;21.70;40.60;;;;;;5066311;28;20509;-77
2022/04/14 12:09:37;;;;;;;23.83;20.17;;;21.40;40.10;;;;;;5059334;28;20499;-76
2022/04/14 12:12:12;;;;;;;25.63;19.53;;;21.30;40.00;;;;;;5050016;28;20464;-78
2022/04/14 12:14:43;;;;;;;20.57;18.37;;;21.40;40.10;;;;;;5064382;28;20784;-77
2022/04/14 12:17:10;;;;;;;18.90;16.93;;;21.50;40.20;;;;;;5067662;28;20458;-79
2022/04/14 12:19:43;;;;;;;21.37;18.90;;;21.90;39.20;;;;;;5059110;28;20478;-79
2022/04/14 12:22:11;;;;;;;22.77;18.90;;;21.90;38.80;;;;;;5058542;28;20476;-77
2022/04/14 12:24:38;;;;;;;25.20;17.93;;;22.00;38.50;;;;;;5044815;28;20552;-79
2022/04/14 12:27:06;;;;;;;20.10;17.70;;;22.00;38.80;;;;;;5043188;28;20460;-80
2022/04/14 12:29:33;;;;;;;23.03;16.90;;;22.20;38.40;;;;;;5042454;28;20544;-79
2022/04/14 12:32:10;;;;;;;24.60;18.87;;;22.10;37.60;;;;;;5051571;28;20500;-77
2022/04/14 12:34:43;;;;;;;19.90;17.60;;;21.70;38.00;;;;;;5063409;28;20435;-75
2022/04/14 12:37:13;;;;;;;18.27;16.37;;;21.60;37.90;;;;;;5064263;28;20423;-75
2022/04/14 12:39:54;;;;;;;17.53;15.67;;;22.00;37.90;;;;;;5065488;28;20469;-75
2022/04/14 12:42:24;;;;;;;19.40;15.43;;;22.50;36.60;;;;;;5066189;28;20490;-77